Latest Weather Observations for Deniliquin

IDN60801

Issued at 7:02 pm EST Monday 6 July 2015 (issued every 30 minutes, with the page automatically refreshed every 10 minutes)

About weather observations | Map of weather stations | Latest weather observations for NSW | Other Formats
Station Details ID: 074258 Name: DENILIQUIN AIRPORT AWS Lat: -35.56 Lon: 144.95 Height: 94.0 m
Data from the previous 72 hours. | See also: Recent months at Deniliquin
Date/Time
EST
Temp
°C
App
Temp
°C
Dew
Point
Rel
Hum
%
Delta-T
°C
Wind Press
QNH
hPa
Press
MSL
hPa
Rain
since 9 am
mm
Dir
 
Spd
km/h
Gust
km/h
Spd
kts
Gust
kts
06/07:00pm 7.1 4.8 5.7 91 0.6 ENE 7 7 4 4 1017.5 1017.6 0.6
06/06:30pm 8.4 6.7 6.0 85 1.1 NE 4 7 2 4 1017.3 1017.4 0.6
06/06:00pm 9.2 7.1 6.5 83 1.3 NNE 7 11 4 6 1017.1 1017.2 0.6
06/05:30pm 9.9 7.1 6.8 81 1.5 N 11 13 6 7 1016.9 1017.0 0.6
06/05:00pm 10.0 7.7 7.4 84 1.2 NE 9 11 5 6 1016.6 1016.7 0.6
06/04:30pm 9.9 7.6 7.5 85 1.1 ENE 9 11 5 6 1016.5 1016.6 0.6
06/04:00pm 10.1 7.1 6.1 76 1.9 NNE 11 13 6 7 1016.6 1016.7 0.4
06/03:30pm 11.1 7.8 4.6 64 2.9 NNE 11 15 6 8 1016.6 1016.7 0.0
06/03:00pm 10.8 6.7 4.5 65 2.8 NE 15 19 8 10 1016.2 1016.3 0.0
06/02:30pm 10.8 6.6 4.0 63 3.0 NE 15 20 8 11 1016.2 1016.3 0.0
06/02:00pm 10.7 6.2 4.0 63 3.0 NE 17 20 9 11 1016.5 1016.6 0.0
06/01:30pm 10.5 6.2 3.5 62 3.1 NNE 15 19 8 10 1016.8 1016.9 0.0
06/01:00pm 10.1 5.9 3.8 65 2.8 NNE 15 19 8 10 1017.0 1017.1 0.0
06/12:30pm 10.0 5.7 3.3 63 2.9 NNE 15 20 8 11 1017.5 1017.6 0.0
06/12:00pm 9.7 5.0 3.4 65 2.7 NNE 17 22 9 12 1017.7 1017.9 0.0
06/11:30am 8.9 4.6 3.5 69 2.3 NE 15 19 8 10 1017.9 1018.1 0.0
06/11:00am 7.5 3.6 3.6 76 1.7 NNE 13 17 7 9 1018.3 1018.5 0.0
06/10:30am 6.3 2.8 3.6 83 1.1 NNE 11 13 6 7 1018.6 1018.8 0.0
06/10:00am 5.6 2.1 3.6 87 0.8 NNE 11 13 6 7 1018.6 1018.8 0.0
06/09:30am 4.9 1.0 3.4 90 0.6 NE 13 17 7 9 1018.4 1018.6 0.0
06/09:00am 4.4 0.5 3.2 92 0.5 NE 13 17 7 9 1018.5 1018.7 0.0
06/08:30am 3.5 -0.2 2.6 94 0.4 ENE 11 13 6 7 1018.4 1018.6 0.0
06/08:00am 3.2 -0.5 2.6 96 0.2 ENE 11 13 6 7 1018.4 1018.6 0.0
06/07:30am 2.3 -1.5 1.9 97 0.2 ENE 11 13 6 7 1018.2 1018.4 0.0
06/07:00am 2.3 -1.5 1.9 97 0.2 ENE 11 11 6 6 1018.1 1018.3 0.0
06/06:30am 2.2 -1.2 1.8 97 0.2 ENE 9 13 5 7 1018.2 1018.4 0.0
06/06:00am 0.9 -2.3 0.5 97 0.1 NE 7 9 4 5 1018.0 1018.2 0.0
06/05:30am 0.2 -3.6 -0.4 96 0.2 ENE 9 9 5 5 1018.0 1018.2 0.0
06/05:00am -0.5 -3.8 -1.3 94 0.3 NNE 6 7 3 4 1018.3 1018.5 0.0
06/04:30am -1.2 -4.8 -2.0 94 0.2 NNE 7 9 4 5 1018.3 1018.5 0.0
06/04:00am -1.1 -4.5 -2.1 93 0.3 ENE 6 7 3 4 1018.5 1018.7 0.0
06/03:30am 1.5 -1.6 1.1 97 0.2 N 7 9 4 5 1018.6 1018.8 0.0
06/03:00am -0.2 -3.7 -1.0 94 0.3 N 7 9 4 5 1018.7 1018.9 0.0
06/02:30am -0.5 -4.0 -1.5 93 0.3 NE 7 9 4 5 1018.8 1019.0 0.0
06/02:00am -0.1 -3.6 -1.1 93 0.3 NNE 7 9 4 5 1019.0 1019.2 0.0
06/01:30am 0.2 -3.6 -0.9 92 0.4 NNE 9 9 5 5 1019.1 1019.3 0.0
06/01:00am 0.7 -2.5 -0.6 91 0.5 NNE 6 7 3 4 1019.3 1019.5 0.0
06/12:30am 2.2 -1.0 0.6 89 0.6 NNE 7 9 4 5 1019.6 1019.8 0.0
06/12:00am 3.7 0.3 1.6 86 0.8 NNE 9 11 5 6 1019.9 1020.1 0.0
 
Date/Time
EST
Temp
°C
App
Temp
°C
Dew
Point
Rel
Hum
%
Delta-T
°C
Wind Press
QNH
hPa
Press
MSL
hPa
Rain
since 9 am
mm
Dir
 
Spd
km/h
Gust
km/h
Spd
kts
Gust
kts
05/11:30pm 4.2 0.9 2.2 87 0.8 NNE 9 11 5 6 1020.0 1020.2 0.0
05/11:00pm 2.9 -0.6 1.0 87 0.7 NNE 9 11 5 6 1020.0 1020.2 0.0
05/10:30pm 3.4 -0.6 0.8 83 1.0 NNE 11 13 6 7 1020.0 1020.2 0.0
05/10:00pm 4.7 1.4 2.2 84 1.0 NNE 9 11 5 6 1020.2 1020.4 0.0
05/09:30pm 4.1 0.4 2.1 87 0.8 NNE 11 13 6 7 1020.3 1020.5 0.0
05/09:00pm 2.3 -1.4 0.2 86 0.8 NNE 9 11 5 6 1020.3 1020.5 0.0
05/08:30pm 2.8 -0.8 0.5 85 0.9 NNE 9 9 5 5 1020.2 1020.4 0.0
05/08:00pm 4.0 1.0 1.7 85 0.9 NE 7 9 4 5 1020.3 1020.5 0.0
05/07:30pm 3.7 0.2 1.4 85 0.9 NE 9 9 5 5 1020.2 1020.4 0.0
05/07:00pm 4.2 1.2 0.9 79 1.3 NW 6 7 3 4 1020.0 1020.2 0.0
05/06:30pm 5.8 4.0 1.0 71 1.9 CALM 0 4 0 2 1020.1 1020.3 0.0
05/06:00pm 7.0 3.8 0.9 65 2.4 NW 7 7 4 4 1020.0 1020.2 0.0
05/05:30pm 9.2 6.1 1.4 58 3.2 NW 7 9 4 5 1019.9 1020.1 0.0
05/05:00pm 10.5 6.6 1.3 53 3.8 NNW 11 13 6 7 1019.8 1020.0 0.0
05/04:30pm 11.6 7.3 1.0 48 4.5 NNW 13 15 7 8 1019.9 1020.1 0.0
05/04:00pm 12.0 7.7 0.8 46 4.7 N 13 20 7 11 1020.0 1020.2 0.0
05/03:30pm 12.0 7.7 0.8 46 4.7 N 13 20 7 11 1019.9 1020.1 0.0
05/03:00pm 12.3 8.1 1.6 48 4.6 N 13 19 7 10 1019.8 1020.0 0.0
05/02:30pm 12.1 7.8 1.1 47 4.7 NNW 13 17 7 9 1020.1 1020.3 0.0
05/02:00pm 11.9 7.7 1.5 49 4.4 N 13 19 7 10 1020.4 1020.6 0.0
05/01:30pm 11.8 7.7 2.0 51 4.2 N 13 20 7 11 1020.7 1020.9 0.0
05/01:00pm 11.0 6.4 1.8 53 3.9 N 15 22 8 12 1021.1 1021.3 0.0
05/12:30pm 11.0 6.9 2.1 54 3.8 N 13 19 7 10 1021.6 1021.8 0.0
05/12:00pm 10.7 6.6 2.3 56 3.6 NNW 13 17 7 9 1022.1 1022.3 0.0
05/11:30am 9.5 5.4 2.1 60 3.1 NNW 13 17 7 9 1022.6 1022.8 0.0
05/11:00am 9.2 5.4 1.9 60 3.0 NNW 11 13 6 7 1022.8 1023.0 0.0
05/10:30am 8.8 5.8 2.2 63 2.8 NNW 7 11 4 6 1023.3 1023.5 0.0
05/10:00am 7.6 4.2 2.1 68 2.3 NNW 9 11 5 6 1023.3 1023.5 0.0
05/09:30am 5.9 2.5 1.6 74 1.7 N 9 11 5 6 1023.3 1023.5 0.0
05/09:00am 4.2 0.8 1.6 83 1.0 NNE 9 13 5 7 1023.3 1023.5 0.0
05/08:30am 2.1 -0.9 0.6 90 0.6 ENE 6 7 3 4 1023.3 1023.5 0.0
05/08:00am 0.5 -2.3 -0.6 92 0.4 N 4 6 2 3 1023.2 1023.4 0.0
05/07:30am 0.0 -3.5 -1.4 90 0.5 NNE 7 7 4 4 1023.1 1023.3 0.0
05/07:00am 0.3 -3.0 -1.1 90 0.5 NNE 6 7 3 4 1023.0 1023.2 0.0
05/06:30am 0.9 -1.2 -0.7 89 0.6 CALM 0 0 0 0 1022.8 1023.0 0.0
05/06:00am 1.1 -1.0 -0.8 87 0.7 CALM 0 0 0 0 1022.7 1022.9 0.0
05/05:30am 2.2 -1.1 -0.1 85 0.8 NNE 7 7 4 4 1022.4 1022.6 0.0
05/05:00am 2.6 -0.7 0.2 84 0.9 N 7 7 4 4 1022.4 1022.6 0.0
05/04:30am 2.5 -1.2 -0.1 83 1.0 NNW 9 13 5 7 1022.4 1022.6 0.0
05/04:00am 3.2 -0.8 0.4 82 1.1 N 11 13 6 7 1022.5 1022.7 0.0
05/03:30am 3.0 -0.6 0.6 84 0.9 N 9 11 5 6 1022.6 1022.8 0.0
05/03:00am 2.9 -0.7 0.3 83 1.0 N 9 13 5 7 1022.6 1022.8 0.0
05/02:30am 2.3 -1.0 0.0 85 0.9 N 7 9 4 5 1022.8 1023.0 0.0
05/02:00am 3.3 0.2 0.0 79 1.2 N 6 9 3 5 1022.7 1022.9 0.0
05/01:30am 3.7 0.0 0.2 78 1.3 N 9 11 5 6 1022.7 1022.9 0.0
05/01:00am 3.8 0.5 0.1 77 1.4 N 7 9 4 5 1022.8 1023.0 0.0
05/12:30am 4.9 1.7 0.9 75 1.6 N 7 9 4 5 1023.2 1023.4 0.0
05/12:00am 4.9 1.7 0.7 74 1.6 N 7 9 4 5 1023.4 1023.6 0.0
 
Date/Time
EST
Temp
°C
App
Temp
°C
Dew
Point
Rel
Hum
%
Delta-T
°C
Wind Press
QNH
hPa
Press
MSL
hPa
Rain
since 9 am
mm
Dir
 
Spd
km/h
Gust
km/h
Spd
kts
Gust
kts
04/11:30pm 5.1 1.2 0.9 74 1.6 N 11 13 6 7 1023.6 1023.8 0.0
04/11:00pm 5.4 1.8 0.8 72 1.8 N 9 13 5 7 1023.8 1024.0 0.0
04/10:30pm 6.1 2.6 1.1 70 2.0 N 9 11 5 6 1023.7 1023.9 0.0
04/10:00pm 6.6 3.2 1.9 72 1.9 N 9 9 5 5 1023.7 1023.9 0.0
04/09:30pm 6.8 3.5 2.3 73 1.9 N 9 9 5 5 1023.9 1024.1 0.0
04/09:00pm 6.4 3.5 2.7 77 1.5 NNE 7 7 4 4 1023.7 1023.9 0.0
04/08:30pm 7.0 5.4 2.5 73 1.9 CALM 0 0 0 0 1023.8 1024.0 0.0
04/08:00pm 7.3 5.7 2.6 72 2.0 CALM 0 0 0 0 1023.8 1024.0 0.0
04/07:30pm 7.4 5.1 2.5 71 2.0 NE 4 6 2 3 1023.7 1023.9 0.0
04/07:00pm 7.7 4.9 3.0 72 2.0 NE 7 9 4 5 1023.6 1023.8 0.0
04/06:30pm 8.0 5.6 2.3 67 2.4 NNE 4 6 2 3 1023.5 1023.7 0.0
04/06:00pm 9.1 6.1 1.8 60 3.0 NNE 7 9 4 5 1023.2 1023.4 0.0
04/05:30pm 9.7 6.7 1.1 55 3.6 NNW 6 7 3 4 1023.3 1023.5 0.0
04/05:00pm 10.2 7.1 1.6 55 3.6 NNW 7 9 4 5 1023.3 1023.5 0.0
04/04:30pm 11.2 7.6 0.6 48 4.4 NW 9 13 5 7 1023.5 1023.7 0.0
04/04:00pm 11.4 7.1 0.8 48 4.4 NW 13 15 7 8 1023.3 1023.5 0.0
04/03:30pm 12.1 8.5 0.5 45 4.8 WNW 9 15 5 8 1023.3 1023.5 0.0
04/03:00pm 12.6 9.0 0.4 43 5.1 WNW 9 15 5 8 1023.3 1023.5 0.0
04/02:30pm 12.6 9.0 0.4 43 5.1 WNW 9 15 5 8 1023.3 1023.5 0.0
04/02:00pm 12.1 7.7 0.2 44 4.9 W 13 17 7 9 1023.5 1023.7 0.0
04/01:30pm 12.3 8.6 0.1 43 5.1 NW 9 17 5 9 1023.8 1024.0 0.0
04/01:00pm 11.6 7.5 -0.2 44 4.8 NW 11 17 6 9 1024.2 1024.4 0.0
04/12:30pm 11.8 7.8 0.3 45 4.8 W 11 17 6 9 1024.7 1024.9 0.0
04/12:00pm 11.4 7.0 0.2 46 4.6 WNW 13 17 7 9 1025.1 1025.3 0.0
04/11:30am 10.8 6.8 0.8 50 4.1 NW 11 17 6 9 1025.7 1025.9 0.0
04/11:00am 10.0 6.0 0.6 52 3.8 WNW 11 17 6 9 1026.1 1026.3 0.0
04/10:30am 9.3 5.4 1.0 56 3.4 WNW 11 15 6 8 1026.2 1026.4 0.0
04/10:00am 8.2 4.2 0.7 59 3.0 NW 11 15 6 8 1026.1 1026.3 0.0
04/09:30am 7.3 3.9 1.6 67 2.3 NW 9 13 5 7 1025.8 1026.0 0.0
04/09:00am 5.5 2.0 1.1 73 1.7 NNW 9 11 5 6 1025.6 1025.8 0.0
04/08:30am 3.8 2.0 1.4 84 0.9 CALM 0 0 0 0 1025.7 1025.9 0.0
04/08:00am 3.6 0.6 0.5 80 1.2 NNW 6 7 3 4 1025.5 1025.7 0.0
04/07:30am 3.7 0.7 0.7 81 1.2 NNW 6 7 3 4 1025.3 1025.5 0.0
04/07:00am 3.7 0.7 0.9 82 1.1 N 6 7 3 4 1025.0 1025.2 0.0
04/06:30am 3.8 0.7 1.2 83 1.0 N 7 7 4 4 1024.7 1024.9 0.0
04/06:00am 3.9 2.1 0.9 81 1.2 CALM 0 0 0 0 1024.6 1024.8 0.0
04/05:30am 3.7 1.9 0.9 82 1.1 CALM 0 0 0 0 1024.6 1024.8 0.0
04/05:00am 3.7 1.9 0.9 82 1.1 CALM 0 0 0 0 1024.6 1024.8 0.0
04/04:30am 3.8 0.2 0.8 81 1.2 NNW 9 11 5 6 1024.6 1024.8 0.0
04/04:00am 3.8 0.6 0.8 81 1.1 NNW 7 11 4 6 1024.6 1024.8 0.0
04/03:30am 2.9 -0.3 0.8 86 0.8 N 7 9 4 5 1024.7 1024.9 0.0
04/03:00am 3.4 0.3 1.3 86 0.8 NNW 7 9 4 5 1025.1 1025.3 0.0
04/02:30am 3.6 0.8 1.8 88 0.7 NNW 6 7 3 4 1025.0 1025.2 0.0
04/02:00am 3.5 0.7 1.9 89 0.6 NNW 6 7 3 4 1025.3 1025.5 0.0
04/01:30am 3.4 0.4 1.8 89 0.6 NNW 7 7 4 4 1025.3 1025.5 0.0
04/01:00am 3.2 0.3 1.4 88 0.7 N 6 6 3 3 1025.5 1025.7 0.0
04/12:30am 3.5 1.4 1.5 87 0.8 N 2 6 1 3 1025.9 1026.1 0.0
04/12:00am 3.9 1.0 1.6 85 0.9 N 6 6 3 3 1026.3 1026.5 0.0
 
Date/Time
EST
Temp
°C
App
Temp
°C
Dew
Point
Rel
Hum
%
Delta-T
°C
Wind Press
QNH
hPa
Press
MSL
hPa
Rain
since 9 am
mm
Dir
 
Spd
km/h
Gust
km/h
Spd
kts
Gust
kts
03/11:30pm 3.6 1.8 1.5 86 0.8 CALM 0 0 0 0 1026.4 1026.7 0.0
03/11:00pm 4.0 2.2 1.5 84 1.0 CALM 0 0 0 0 1026.4 1026.7 0.0
03/10:30pm 4.4 2.3 1.6 82 1.1 N 2 6 1 3 1026.4 1026.7 0.0
03/10:00pm 4.2 1.7 1.4 82 1.1 NNW 4 6 2 3 1026.6 1026.8 0.0
03/09:30pm 4.2 1.1 1.2 81 1.2 NNW 7 9 4 5 1026.9 1027.1 0.0
03/09:00pm 4.1 1.1 1.1 81 1.2 N 6 6 3 3 1026.8 1027.0 0.0
03/08:30pm 4.2 2.4 0.9 79 1.3 CALM 0 0 0 0 1027.0 1027.2 0.0
03/08:00pm 4.5 2.6 0.8 77 1.4 CALM 0 0 0 0 1026.9 1027.1 0.0
03/07:30pm 5.6 2.4 1.0 72 1.8 NW 7 11 4 6 1027.1 1027.3 0.0

Other Formats:

Comma delimited format used in spreadsheet applications
http://www.bom.gov.au/fwo/IDN60801/IDN60801.95869.axf

JavaScript Object Notation format (JSON) in row-major order
http://www.bom.gov.au/fwo/IDN60801/IDN60801.95869.json